Time;durP1;ratioP1;P1;durP2;ratioP2;P2;SDS_P1;SDS_P2;PMS_P1;PMS_P2;Temp;Humidity;BMP_temperature;BMP_pressure;BME280_temperature;BME280_humidity;BME280_pressure;Samples;Min_cycle;Max_cycle;Signal;HPM_P1;HPM_P2
2021/04/18 00:01:24;;;;;;;;;;;;;;;7.74;78.04;101548.97;1789936;80;20511;-76
2021/04/18 00:03:52;;;;;;;;;;;;;;;7.68;78.24;101543.20;1789830;80;20253;-76
2021/04/18 00:06:20;;;;;;;;;;;;;;;7.65;78.49;101548.50;1789849;80;20127;-76
2021/04/18 00:09:08;;;;;;;;;;;;;;;7.63;78.92;101552.86;1790021;80;22689;-75
2021/04/18 00:11:35;;;;;;;;;;;;;;;7.62;79.08;101550.76;1790614;80;20610;-75
2021/04/18 00:14:05;;;;;;;;;;;;;;;7.66;79.26;101551.48;1790600;80;20482;-76
2021/04/18 00:16:35;;;;;;;;;;;;;;;7.68;79.33;101553.09;1789839;80;20139;-75
2021/04/18 00:19:04;;;;;;;;;;;;;;;7.72;79.22;101555.92;1789846;80;20503;-76
2021/04/18 00:21:32;;;;;;;;;;;;;;;7.76;79.38;101556.20;1790009;80;22400;-76
2021/04/18 00:24:00;;;;;;;;;;;;;;;7.81;79.12;101550.41;1789713;80;20836;-76
2021/04/18 00:26:27;;;;;;;;;;;;;;;7.85;78.85;101553.23;1789823;80;20167;-76
2021/04/18 00:28:57;;;;;;;;;;;;;;;7.88;78.67;101554.88;1789925;80;20270;-76
2021/04/18 00:31:25;;;;;;;;;;;;;;;7.90;78.63;101559.08;1789898;80;20131;-75
2021/04/18 00:33:52;;;;;;;;;;;;;;;7.94;78.68;101549.46;1789794;80;21636;-76
2021/04/18 00:36:22;;;;;;;;;;;;;;;7.98;78.75;101553.58;1788156;79;20232;-76
2021/04/18 00:38:49;;;;;;;;;;;;;;;8.03;78.70;101559.86;1789814;80;20250;-76
2021/04/18 00:41:17;;;;;;;;;;;;;;;8.05;78.55;101556.75;1789870;80;20640;-76
2021/04/18 00:43:45;;;;;;;;;;;;;;;8.07;78.38;101559.69;1789806;80;20270;-76
2021/04/18 00:46:12;;;;;;;;;;;;;;;8.09;78.16;101557.87;1789881;80;21639;-76
2021/04/18 00:48:42;;;;;;;;;;;;;;;8.10;78.09;101552.25;1789839;80;20147;-77
2021/04/18 00:51:13;;;;;;;;;;;;;;;8.10;78.00;101547.08;1789947;80;20552;-76
2021/04/18 00:53:42;;;;;;;;;;;;;;;8.07;77.89;101550.64;1791110;80;20139;-75
2021/04/18 00:56:11;;;;;;;;;;;;;;;8.03;77.68;101542.61;1791493;80;20497;-75
2021/04/18 00:58:39;;;;;;;;;;;;;;;8.01;77.62;101539.23;1789778;80;21662;-75
2021/04/18 01:01:07;;;;;;;;;;;;;;;7.98;78.00;101534.19;1789702;80;20234;-75
2021/04/18 01:03:37;;;;;;;;;;;;;;;7.97;78.21;101535.12;1789775;80;20254;-75
2021/04/18 01:06:06;;;;;;;;;;;;;;;7.97;78.07;101534.67;1789830;80;20155;-75
2021/04/18 01:08:36;;;;;;;;;;;;;;;7.98;78.06;101526.44;1788260;80;20170;-75
2021/04/18 01:11:05;;;;;;;;;;;;;;;8.02;78.04;101526.70;1761032;80;40261;-75
2021/04/18 01:13:33;;;;;;;;;;;;;;;8.05;77.71;101530.45;1789650;80;20223;-75
2021/04/18 01:16:03;;;;;;;;;;;;;;;8.03;77.37;101529.69;1789822;80;20146;-76
2021/04/18 01:18:31;;;;;;;;;;;;;;;8.02;77.14;101524.13;1789670;80;20158;-76
2021/04/18 01:21:09;;;;;;;;;;;;;;;8.02;77.17;101528.00;1789864;80;20151;-76
2021/04/18 01:23:42;;;;;;;;;;;;;;;8.04;77.38;101526.18;1705034;80;22485;-75
2021/04/18 01:26:18;;;;;;;;;;;;;;;8.07;77.34;101524.80;1788069;80;20242;-76
2021/04/18 01:28:46;;;;;;;;;;;;;;;8.09;77.38;101526.00;1789880;80;20147;-76
2021/04/18 01:31:15;;;;;;;;;;;;;;;8.09;77.37;101520.39;1789775;80;20251;-76
2021/04/18 01:33:43;;;;;;;;;;;;;;;8.09;77.54;101513.92;1789892;80;20513;-76
2021/04/18 01:36:12;;;;;;;;;;;;;;;8.09;77.52;101516.95;1791092;80;20131;-75
2021/04/18 01:38:40;;;;;;;;;;;;;;;8.10;77.49;101516.91;1790838;80;20135;-75
2021/04/18 01:41:09;;;;;;;;;;;;;;;8.15;77.47;101512.81;1789892;80;20278;-75
2021/04/18 01:43:38;;;;;;;;;;;;;;;8.16;77.69;101517.94;1789841;80;20115;-75
2021/04/18 01:46:09;;;;;;;;;;;;;;;8.18;77.80;101517.86;1789988;80;20508;-76
2021/04/18 01:48:38;;;;;;;;;;;;;;;8.19;77.65;101520.84;1789785;80;21378;-75
2021/04/18 01:51:07;;;;;;;;;;;;;;;8.22;77.54;101520.70;1789674;80;20234;-76
2021/04/18 01:53:37;;;;;;;;;;;;;;;8.22;77.26;101516.38;1789690;80;20274;-76
2021/04/18 01:56:06;;;;;;;;;;;;;;;8.24;77.23;101511.97;1789759;80;20159;-75
2021/04/18 01:58:35;;;;;;;;;;;;;;;8.29;77.16;101513.96;1789675;80;20505;-75
2021/04/18 02:01:08;;;;;;;;;;;;;;;8.36;77.05;101515.83;1775858;80;22598;-75
2021/04/18 02:03:37;;;;;;;;;;;;;;;8.39;76.84;101509.23;1789771;80;20277;-76
2021/04/18 02:06:08;;;;;;;;;;;;;;;8.40;76.71;101507.01;1789833;80;20131;-77
2021/04/18 02:08:38;;;;;;;;;;;;;;;8.38;76.70;101507.09;1788648;80;20278;-76
2021/04/18 02:11:06;;;;;;;;;;;;;;;8.36;76.76;101508.07;1789849;80;20220;-76
2021/04/18 02:13:36;;;;;;;;;;;;;;;8.33;76.88;101509.02;1789882;80;21276;-76
2021/04/18 02:16:08;;;;;;;;;;;;;;;8.33;77.08;101509.47;1747977;79;20627;-75
2021/04/18 02:18:38;;;;;;;;;;;;;;;8.32;77.24;101500.05;1790659;80;20302;-75
2021/04/18 02:21:07;;;;;;;;;;;;;;;8.30;77.30;101498.81;1788389;80;20304;-75
2021/04/18 02:23:35;;;;;;;;;;;;;;;8.29;77.63;101499.73;1788143;80;20131;-75
2021/04/18 02:26:04;;;;;;;;;;;;;;;8.29;77.80;101496.30;1787972;80;21137;-75
2021/04/18 02:28:32;;;;;;;;;;;;;;;8.29;78.02;101497.59;1787841;80;20159;-75
2021/04/18 02:31:01;;;;;;;;;;;;;;;8.27;77.96;101502.79;1787999;80;20239;-75
2021/04/18 02:33:30;;;;;;;;;;;;;;;8.27;78.03;101504.53;1786308;80;21177;-75
2021/04/18 02:35:59;;;;;;;;;;;;;;;8.26;78.26;101508.04;1788033;80;20500;-75
2021/04/18 02:38:27;;;;;;;;;;;;;;;8.26;78.51;101508.89;1788037;80;22147;-75
2021/04/18 02:40:55;;;;;;;;;;;;;;;8.26;78.63;101509.34;1787948;80;21042;-74
2021/04/18 02:43:23;;;;;;;;;;;;;;;8.28;78.67;101516.59;1787929;80;20112;-75
2021/04/18 02:45:51;;;;;;;;;;;;;;;8.28;78.97;101510.12;1787935;80;20151;-76
2021/04/18 02:48:19;;;;;;;;;;;;;;;8.32;78.89;101516.86;1762272;80;20214;-76
2021/04/18 02:50:48;;;;;;;;;;;;;;;8.35;78.59;101520.16;1787984;80;21202;-76
2021/04/18 02:53:17;;;;;;;;;;;;;;;8.35;78.26;101514.98;1787864;80;20229;-76
2021/04/18 02:55:44;;;;;;;;;;;;;;;8.34;77.93;101517.17;1787954;80;20158;-75
2021/04/18 02:58:14;;;;;;;;;;;;;;;8.32;77.60;101512.53;1787604;80;20234;-76
2021/04/18 03:00:43;;;;;;;;;;;;;;;8.31;77.37;101509.55;1789298;80;20214;-75
2021/04/18 03:03:11;;;;;;;;;;;;;;;8.30;77.10;101513.48;1787935;80;22561;-75
2021/04/18 03:05:39;;;;;;;;;;;;;;;8.29;77.11;101509.23;1787988;80;20654;-75
2021/04/18 03:08:08;;;;;;;;;;;;;;;8.27;76.94;101505.38;1788048;80;20564;-75
2021/04/18 03:10:35;;;;;;;;;;;;;;;8.24;76.93;101504.22;1787902;80;20143;-75
2021/04/18 03:13:03;;;;;;;;;;;;;;;8.23;76.88;101501.71;1787905;80;20135;-75
2021/04/18 03:15:33;;;;;;;;;;;;;;;8.21;76.73;101503.50;1788030;80;20576;-76
2021/04/18 03:18:04;;;;;;;;;;;;;;;8.20;76.78;101507.02;1788204;79;20234;-76
2021/04/18 03:20:33;;;;;;;;;;;;;;;8.20;76.77;101513.00;1789896;80;20242;-75
2021/04/18 03:23:00;;;;;;;;;;;;;;;8.21;76.70;101513.39;1789963;80;21103;-75
2021/04/18 03:25:28;;;;;;;;;;;;;;;8.23;76.84;101512.87;1789925;80;20222;-75
2021/04/18 03:27:56;;;;;;;;;;;;;;;8.28;76.87;101521.31;1789915;80;21201;-75
2021/04/18 03:30:29;;;;;;;;;;;;;;;8.31;77.09;101528.95;1787804;80;20603;-76
2021/04/18 03:32:59;;;;;;;;;;;;;;;8.31;76.99;101528.95;1789880;80;20151;-76
2021/04/18 03:35:28;;;;;;;;;;;;;;;8.33;76.95;101531.00;1789827;80;20123;-76
2021/04/18 03:37:56;;;;;;;;;;;;;;;8.33;76.93;101528.41;1789911;80;20250;-76
2021/04/18 03:40:25;;;;;;;;;;;;;;;8.34;76.93;101537.02;1791662;80;21659;-77
2021/04/18 03:42:54;;;;;;;;;;;;;;;8.30;77.12;101539.34;1790720;80;20155;-76
2021/04/18 03:45:23;;;;;;;;;;;;;;;8.24;77.50;101541.70;1789879;80;20147;-75
2021/04/18 03:47:53;;;;;;;;;;;;;;;8.20;78.04;101546.61;1789783;80;20481;-76
2021/04/18 03:50:23;;;;;;;;;;;;;;;8.14;78.40;101549.45;1790030;80;20150;-76
2021/04/18 03:52:55;;;;;;;;;;;;;;;8.12;78.94;101544.81;1787571;80;21219;-75
2021/04/18 03:55:25;;;;;;;;;;;;;;;8.16;79.43;101547.67;1789887;80;20508;-75
2021/04/18 03:57:53;;;;;;;;;;;;;;;8.19;79.86;101540.23;1789763;80;20131;-75
2021/04/18 04:00:22;;;;;;;;;;;;;;;8.24;80.36;101544.30;1789854;80;20253;-75
2021/04/18 04:02:53;;;;;;;;;;;;;;;8.28;80.93;101542.01;1788686;80;20237;-75
2021/04/18 04:05:23;;;;;;;;;;;;;;;8.31;81.40;101538.44;1789915;80;21662;-75
2021/04/18 04:07:51;;;;;;;;;;;;;;;8.31;81.74;101541.87;1789825;80;20131;-75
2021/04/18 04:10:19;;;;;;;;;;;;;;;8.30;81.96;101536.75;1789982;80;20508;-75
2021/04/18 04:12:50;;;;;;;;;;;;;;;8.29;82.36;101538.52;1789882;80;20222;-75
2021/04/18 04:15:18;;;;;;;;;;;;;;;8.28;82.57;101545.04;1789819;80;20253;-75
2021/04/18 04:17:48;;;;;;;;;;;;;;;8.30;82.85;101545.80;1789830;80;21476;-75
2021/04/18 04:20:18;;;;;;;;;;;;;;;8.32;83.06;101544.86;1789209;79;20147;-75
2021/04/18 04:23:02;;;;;;;;;;;;;;;8.34;83.20;101543.03;1785459;80;20130;-75
2021/04/18 04:25:32;;;;;;;;;;;;;;;8.37;83.25;101547.23;1789652;80;20166;-75
2021/04/18 04:28:00;;;;;;;;;;;;;;;8.40;83.33;101553.56;1789942;80;20489;-75
2021/04/18 04:30:27;;;;;;;;;;;;;;;8.41;83.32;101557.39;1789855;80;21649;-75
2021/04/18 04:32:55;;;;;;;;;;;;;;;8.42;83.41;101553.88;1789795;80;20134;-75
2021/04/18 04:35:23;;;;;;;;;;;;;;;8.45;83.58;101552.48;1789899;80;20488;-75
2021/04/18 04:37:51;;;;;;;;;;;;;;;8.49;83.78;101553.16;1789861;80;20135;-75
2021/04/18 04:40:19;;;;;;;;;;;;;;;8.57;83.90;101559.31;1789785;80;20139;-76
2021/04/18 04:42:48;;;;;;;;;;;;;;;8.63;83.83;101556.45;1789731;80;20119;-75
2021/04/18 04:45:16;;;;;;;;;;;;;;;8.71;83.84;101559.56;1789751;80;20150;-76
2021/04/18 04:47:44;;;;;;;;;;;;;;;8.75;83.84;101558.50;1789925;80;20147;-75
2021/04/18 04:50:13;;;;;;;;;;;;;;;8.81;83.70;101563.40;1789760;80;20235;-75
2021/04/18 04:52:41;;;;;;;;;;;;;;;8.84;83.65;101558.92;1789867;80;20202;-75
2021/04/18 04:55:10;;;;;;;;;;;;;;;8.91;83.60;101556.91;1789910;80;20516;-75
2021/04/18 04:57:37;;;;;;;;;;;;;;;8.97;83.43;101554.04;1789787;80;20171;-75
2021/04/18 05:00:06;;;;;;;;;;;;;;;8.99;83.22;101546.61;1789941;80;20267;-75
2021/04/18 05:02:34;;;;;;;;;;;;;;;9.02;83.16;101545.18;1791418;80;20946;-75
2021/04/18 05:05:02;;;;;;;;;;;;;;;9.03;82.96;101542.95;1790462;80;20222;-75
2021/04/18 05:07:30;;;;;;;;;;;;;;;9.05;82.76;101545.48;1789881;80;22119;-75
2021/04/18 05:09:58;;;;;;;;;;;;;;;9.04;82.65;101543.80;1789667;80;20667;-75
2021/04/18 05:12:26;;;;;;;;;;;;;;;9.02;82.74;101532.69;1789746;80;20500;-74
2021/04/18 05:14:54;;;;;;;;;;;;;;;9.00;82.88;101531.45;1789703;80;20224;-75
2021/04/18 05:17:21;;;;;;;;;;;;;;;9.02;82.98;101541.75;1789802;80;20516;-75
2021/04/18 05:19:49;;;;;;;;;;;;;;;9.07;82.98;101537.64;1788342;80;22705;-76
2021/04/18 05:22:17;;;;;;;;;;;;;;;9.17;82.89;101541.48;1787897;80;20924;-75
2021/04/18 05:24:45;;;;;;;;;;;;;;;9.24;82.65;101541.59;1787910;80;20222;-76
2021/04/18 05:27:13;;;;;;;;;;;;;;;9.30;82.45;101535.67;1787865;80;20286;-75
2021/04/18 05:29:41;;;;;;;;;;;;;;;9.34;82.33;101541.55;1787925;80;20243;-76
2021/04/18 05:32:09;;;;;;;;;;;;;;;9.36;82.44;101537.98;1787853;80;21193;-76
2021/04/18 05:34:37;;;;;;;;;;;;;;;9.37;82.48;101531.05;1787733;80;20269;-76
2021/04/18 05:37:06;;;;;;;;;;;;;;;9.38;82.71;101526.27;1787856;80;20151;-76
2021/04/18 05:39:34;;;;;;;;;;;;;;;9.42;82.87;101529.06;1787730;80;20115;-76
2021/04/18 05:42:01;;;;;;;;;;;;;;;9.48;82.96;101530.07;1789549;80;20112;-75
2021/04/18 05:44:29;;;;;;;;;;;;;;;9.50;82.76;101529.56;1789324;80;21648;-75
2021/04/18 05:46:57;;;;;;;;;;;;;;;9.51;82.60;101533.36;1787974;80;20198;-74
2021/04/18 05:49:26;;;;;;;;;;;;;;;9.54;82.52;101531.07;1788185;80;20473;-76
2021/04/18 05:51:54;;;;;;;;;;;;;;;9.54;82.11;101529.32;1788015;80;20682;-75
2021/04/18 05:54:21;;;;;;;;;;;;;;;9.51;81.77;101526.88;1787938;80;20167;-75
2021/04/18 05:56:49;;;;;;;;;;;;;;;9.52;81.76;101526.42;1788009;80;21201;-76
2021/04/18 05:59:17;;;;;;;;;;;;;;;9.53;81.44;101522.48;1787934;80;20261;-76
2021/04/18 06:01:44;;;;;;;;;;;;;;;9.56;80.97;101518.45;1787960;80;20131;-76
2021/04/18 06:04:14;;;;;;;;;;;;;;;9.57;80.46;101510.22;1787942;80;20218;-75
2021/04/18 06:06:42;;;;;;;;;;;;;;;9.58;80.27;101512.72;1788012;80;20251;-76
2021/04/18 06:09:10;;;;;;;;;;;;;;;9.62;80.18;101513.41;1787977;80;21349;-74
2021/04/18 06:11:38;;;;;;;;;;;;;;;9.67;79.51;101512.72;1788032;80;20162;-76
2021/04/18 06:14:06;;;;;;;;;;;;;;;9.75;78.69;101514.95;1787962;80;20135;-75
2021/04/18 06:16:33;;;;;;;;;;;;;;;9.78;78.36;101509.62;1787930;80;20143;-76
2021/04/18 06:19:02;;;;;;;;;;;;;;;9.83;78.04;101519.29;1787908;80;20175;-76
2021/04/18 06:21:31;;;;;;;;;;;;;;;9.87;77.51;101520.38;1788053;80;22226;-75
2021/04/18 06:24:00;;;;;;;;;;;;;;;9.93;77.25;101514.03;1789685;80;20572;-75
2021/04/18 06:26:27;;;;;;;;;;;;;;;10.00;76.90;101515.41;1788850;80;20634;-76
2021/04/18 06:28:56;;;;;;;;;;;;;;;10.06;76.62;101509.92;1787893;80;20254;-75
2021/04/18 06:31:25;;;;;;;;;;;;;;;10.13;76.29;101509.16;1787980;80;20493;-75
2021/04/18 06:33:53;;;;;;;;;;;;;;;10.15;76.22;101512.08;1787995;80;22226;-76
2021/04/18 06:36:21;;;;;;;;;;;;;;;10.16;76.26;101511.17;1788022;80;20131;-76
2021/04/18 06:38:48;;;;;;;;;;;;;;;10.20;76.24;101511.86;1787984;80;20226;-75
2021/04/18 06:41:21;;;;;;;;;;;;;;;10.24;76.17;101512.93;1788045;80;20498;-76
2021/04/18 06:43:50;;;;;;;;;;;;;;;10.29;76.04;101513.52;1787933;80;20214;-76
2021/04/18 06:46:19;;;;;;;;;;;;;;;10.31;75.72;101516.02;1788088;80;22146;-76
2021/04/18 06:48:49;;;;;;;;;;;;;;;10.30;75.67;101516.51;1787980;80;20131;-77
2021/04/18 06:51:18;;;;;;;;;;;;;;;10.29;75.68;101521.30;1787919;80;20457;-76
2021/04/18 06:53:48;;;;;;;;;;;;;;;10.31;75.64;101516.87;1787948;80;20135;-76
2021/04/18 06:56:16;;;;;;;;;;;;;;;10.37;75.67;101518.33;1788100;80;20512;-76
2021/04/18 06:58:45;;;;;;;;;;;;;;;10.45;75.54;101524.80;1787961;80;21202;-76
2021/04/18 07:01:13;;;;;;;;;;;;;;;10.53;75.41;101520.03;1787942;80;20127;-76
2021/04/18 07:03:41;;;;;;;;;;;;;;;10.60;75.24;101516.66;1788706;80;20151;-74
2021/04/18 07:06:10;;;;;;;;;;;;;;;10.65;74.86;101515.13;1789649;80;20162;-76
2021/04/18 07:08:38;;;;;;;;;;;;;;;10.72;74.85;101506.10;1788064;80;20155;-77
2021/04/18 07:11:18;;;;;;;;;;;;;;;10.81;74.90;101509.05;1787953;80;21377;-76
2021/04/18 07:13:47;;;;;;;;;;;;;;;10.93;74.53;101507.54;1787889;80;20151;-76
2021/04/18 07:16:24;;;;;;;;;;;;;;;11.03;74.22;101506.97;1788011;80;20135;-76
2021/04/18 07:18:52;;;;;;;;;;;;;;;11.13;73.80;101504.70;1787846;79;20131;-76
2021/04/18 07:21:21;;;;;;;;;;;;;;;11.22;73.56;101504.66;1789948;80;20211;-77
2021/04/18 07:23:48;;;;;;;;;;;;;;;11.32;73.58;101500.63;1790008;80;21192;-76
2021/04/18 07:26:26;;;;;;;;;;;;;;;11.39;72.57;101499.37;1789894;80;20111;-76
2021/04/18 07:29:16;;;;;;;;;;;;;;;11.43;72.17;101502.98;1789926;80;20504;-76
2021/04/18 07:31:45;;;;;;;;;;;;;;;11.53;72.37;101508.05;1789855;80;20139;-76
2021/04/18 07:34:42;;;;;;;;;;;;;;;11.70;71.86;101501.94;1789537;80;20151;-77
2021/04/18 07:37:16;;;;;;;;;;;;;;;11.82;71.51;101502.98;1723636;83;21643;-76
2021/04/18 07:39:48;;;;;;;;;;;;;;;11.90;70.35;101499.48;1728531;83;20218;-76
2021/04/18 07:42:41;;;;;;;;;;;;;;;11.98;70.13;101495.96;1728798;83;20514;-76
2021/04/18 07:45:12;;;;;;;;;;;;;;;12.05;69.63;101504.63;1730469;83;20144;-76
2021/04/18 07:47:41;;;;;;;;;;;;;;;11.96;69.29;101508.23;1730998;83;20247;-77
2021/04/18 07:50:15;;;;;;;;;;;;;;;11.86;69.06;101515.73;1728865;83;21352;-75
2021/04/18 07:52:44;;;;;;;;;;;;;;;11.81;69.17;101509.09;1728865;83;20246;-76
2021/04/18 07:55:13;;;;;;;;;;;;;;;11.85;69.65;101511.91;1728817;83;20115;-76
2021/04/18 07:57:41;;;;;;;;;;;;;;;11.93;69.40;101515.76;1728833;83;20218;-75
2021/04/18 08:00:09;;;;;;;;;;;;;;;12.00;69.34;101508.41;1728806;83;20449;-76
2021/04/18 08:02:40;;;;;;;;;;;;;;;12.12;69.06;101509.02;1706377;84;21335;-75
2021/04/18 08:05:09;;;;;;;;;;;;;;;12.23;67.57;101502.69;1706190;84;20239;-77
2021/04/18 08:08:03;;;;;;;;;;;;;;;12.30;65.96;101504.47;1706245;84;20118;-76
2021/04/18 08:10:33;;;;;;;;;;;;;;;12.25;64.96;101513.88;1706129;84;20310;-76
2021/04/18 08:13:04;;;;;;;;;;;;;;;12.34;64.64;101505.97;1706252;84;20165;-76
2021/04/18 08:15:32;;;;;;;;;;;;;;;12.40;63.74;101499.09;1706334;84;22539;-75
2021/04/18 08:18:08;;;;;;;;;;;;;;;12.43;62.96;101489.79;1706311;84;20503;-75
2021/04/18 08:20:42;;;;;;;;;;;;;;;12.49;62.45;101486.36;1706325;84;20524;-76
2021/04/18 08:23:15;;;;;;;;;;;;;;;12.58;61.50;101491.45;1706162;84;20284;-76
2021/04/18 08:26:10;;;;;;;;;;;;;;;12.63;61.72;101498.08;1706478;84;20175;-74
2021/04/18 08:29:05;;;;;;;;;;;;;;;12.65;61.49;101488.86;1707726;84;21403;-75
2021/04/18 08:31:32;;;;;;;;;;;;;;;12.65;60.56;101483.19;1706010;84;20225;-77
2021/04/18 08:34:03;;;;;;;;;;;;;;;12.71;60.33;101488.02;1706141;84;20232;-75
2021/04/18 08:36:34;;;;;;;;;;;;;;;12.76;60.02;101475.18;1702725;83;20583;-75
2021/04/18 08:39:08;;;;;;;;;;;;;;;12.85;58.45;101470.23;1671644;86;20494;-75
2021/04/18 08:41:44;;;;;;;;;;;;;;;12.94;57.88;101475.33;1721132;83;21206;-75
2021/04/18 08:44:30;;;;;;;;;;;;;;;13.09;57.26;101480.44;1701066;84;20228;-75
2021/04/18 08:47:07;;;;;;;;;;;;;;;13.24;56.13;101479.95;1701144;84;20166;-77
2021/04/18 08:49:37;;;;;;;;;;;;;;;13.34;54.98;101473.17;1700960;84;20669;-77
2021/04/18 08:52:07;;;;;;;;;;;;;;;13.38;53.81;101474.66;1701183;84;20217;-76
2021/04/18 08:54:38;;;;;;;;;;;;;;;13.40;52.98;101466.26;1701215;84;21229;-77
2021/04/18 08:57:10;;;;;;;;;;;;;;;13.44;52.85;101470.34;1700684;82;20237;-78
2021/04/18 08:59:39;;;;;;;;;;;;;;;13.38;52.37;101473.36;1701260;84;20503;-75
2021/04/18 09:02:12;;;;;;;;;;;;;;;13.38;52.01;101468.14;1701193;84;20530;-75
2021/04/18 09:04:50;;;;;;;;;;;;;;;13.41;52.51;101465.34;1701363;84;20490;-76
2021/04/18 09:07:20;;;;;;;;;;;;;;;13.44;52.61;101456.47;1721746;83;21266;-76
2021/04/18 09:09:49;;;;;;;;;;;;;;;13.43;52.09;101449.61;1722268;83;20258;-76
2021/04/18 09:12:17;;;;;;;;;;;;;;;13.34;52.50;101449.72;1701638;84;20229;-76
2021/04/18 09:14:48;;;;;;;;;;;;;;;13.37;52.98;101437.78;1721090;83;20136;-76
2021/04/18 09:17:19;;;;;;;;;;;;;;;13.49;52.87;101430.48;1666843;85;20501;-76
2021/04/18 09:19:55;;;;;;;;;;;;;;;13.51;52.47;101435.58;1671509;84;21219;-75
2021/04/18 09:22:30;;;;;;;;;;;;;;;13.39;53.30;101435.09;1728406;83;20281;-76
2021/04/18 09:25:09;;;;;;;;;;;;;;;13.37;53.27;101433.06;1728594;83;20231;-76
2021/04/18 09:27:39;;;;;;;;;;;;;;;13.36;53.17;101432.22;1728484;83;20280;-77
2021/04/18 09:30:10;;;;;;;;;;;;;;;13.29;53.83;101430.11;1728526;83;20223;-76
2021/04/18 09:32:44;;;;;;;;;;;;;;;13.18;54.30;101436.84;1725337;83;20619;-76
2021/04/18 09:35:12;;;;;;;;;;;;;;;13.17;54.71;101432.59;1728286;83;20750;-77
2021/04/18 09:37:43;;;;;;;;;;;;;;;13.17;54.34;101429.98;1728630;83;20521;-76
2021/04/18 09:40:13;;;;;;;;;;;;;;;13.07;53.91;101427.56;1728094;83;20189;-75
2021/04/18 09:42:44;;;;;;;;;;;;;;;12.96;54.28;101418.73;1728618;83;20224;-76
2021/04/18 09:45:23;;;;;;;;;;;;;;;13.00;54.73;101421.52;1728447;83;21195;-77
2021/04/18 09:47:54;;;;;;;;;;;;;;;13.02;54.27;101424.39;1728406;83;20180;-77
2021/04/18 09:50:30;;;;;;;;;;;;;;;13.06;54.38;101417.22;1729807;83;20156;-77
2021/04/18 09:53:18;;;;;;;;;;;;;;;13.12;54.08;101425.98;1730381;83;20131;-76
2021/04/18 09:55:54;;;;;;;;;;;;;;;13.12;53.93;101419.46;1728368;83;20164;-76
2021/04/18 09:58:30;;;;;;;;;;;;;;;13.16;54.45;101419.17;1729195;83;22115;-76
2021/04/18 10:00:59;;;;;;;;;;;;;;;13.21;54.95;101418.39;1728405;83;20509;-75
2021/04/18 10:03:37;;;;;;;;;;;;;;;13.22;54.78;101409.66;1728398;83;20136;-77
2021/04/18 10:06:08;;;;;;;;;;;;;;;13.30;54.62;101409.63;1728392;83;20179;-77
2021/04/18 10:08:38;;;;;;;;;;;;;;;13.41;54.58;101404.53;1728567;83;20151;-77
2021/04/18 10:11:15;;;;;;;;;;;;;;;13.52;54.52;101404.20;1728540;83;21144;-77
2021/04/18 10:13:49;;;;;;;;;;;;;;;13.59;54.91;101401.53;1728593;83;20306;-78
2021/04/18 10:16:25;;;;;;;;;;;;;;;13.52;54.16;101406.81;1728118;83;20198;-77
2021/04/18 10:19:14;;;;;;;;;;;;;;;13.51;53.65;101396.00;1728485;83;20564;-79
2021/04/18 10:21:45;;;;;;;;;;;;;;;13.46;53.71;101390.28;1728506;83;20116;-77
2021/04/18 10:24:40;;;;;;;;;;;;;;;13.45;54.14;101393.81;1727938;83;22068;-78
2021/04/18 10:27:09;;;;;;;;;;;;;;;13.36;53.50;101395.73;1728421;83;20502;-77
2021/04/18 10:29:37;;;;;;;;;;;;;;;13.18;54.66;101394.30;1728522;83;20214;-76
2021/04/18 10:32:05;;;;;;;;;;;;;;;13.14;53.68;101398.91;1729231;83;20180;-79
2021/04/18 10:34:33;;;;;;;;;;;;;;;13.04;53.14;101404.77;1729999;83;20285;-77
2021/04/18 10:37:01;;;;;;;;;;;;;;;12.93;52.78;101405.45;1723406;83;21197;-77
2021/04/18 10:39:30;;;;;;;;;;;;;;;12.83;52.72;101407.45;1726619;83;20230;-76
2021/04/18 10:41:58;;;;;;;;;;;;;;;12.80;52.96;101404.55;1726514;83;20231;-75
2021/04/18 10:44:27;;;;;;;;;;;;;;;12.78;53.13;101406.43;1726847;83;20553;-74
2021/04/18 10:46:57;;;;;;;;;;;;;;;12.82;53.89;101405.31;1726943;83;20485;-78
2021/04/18 10:49:25;;;;;;;;;;;;;;;12.88;53.84;101409.28;1726907;83;21386;-76
2021/04/18 10:51:53;;;;;;;;;;;;;;;12.89;52.77;101410.47;1726737;83;20230;-75
2021/04/18 10:54:21;;;;;;;;;;;;;;;12.93;53.04;101411.95;1726723;83;20183;-76
2021/04/18 10:56:49;;;;;;;;;;;;;;;13.00;53.21;101419.76;1726936;83;20585;-75
2021/04/18 10:59:17;;;;;;;;;;;;;;;13.04;53.17;101417.34;1726899;83;20219;-79
2021/04/18 11:01:45;;;;;;;;;;;;;;;13.09;52.61;101420.96;1726638;83;21200;-77
2021/04/18 11:04:15;;;;;;;;;;;;;;;13.07;51.92;101418.44;1726530;83;20167;-79
2021/04/18 11:06:44;;;;;;;;;;;;;;;13.04;51.36;101423.84;1726670;83;20255;-77
2021/04/18 11:09:12;;;;;;;;;;;;;;;13.07;51.27;101419.74;1726724;83;20163;-78
2021/04/18 11:11:40;;;;;;;;;;;;;;;13.16;52.30;101419.64;1726929;83;20517;-78
2021/04/18 11:14:08;;;;;;;;;;;;;;;13.23;51.51;101426.97;1726734;83;21139;-78
2021/04/18 11:16:36;;;;;;;;;;;;;;;13.28;50.47;101427.13;1726720;83;20120;-78
2021/04/18 11:19:06;;;;;;;;;;;;;;;13.33;50.19;101426.37;1726757;83;20152;-78
2021/04/18 11:21:34;;;;;;;;;;;;;;;13.32;50.00;101425.53;1726742;83;20513;-78
2021/04/18 11:24:02;;;;;;;;;;;;;;;13.31;49.80;101432.97;1726761;83;20152;-79
2021/04/18 11:26:30;;;;;;;;;;;;;;;13.25;49.94;101432.91;1726681;83;21141;-78
2021/04/18 11:28:59;;;;;;;;;;;;;;;13.20;49.47;101436.76;1726688;83;20116;-79
2021/04/18 11:31:26;;;;;;;;;;;;;;;13.18;49.17;101439.91;1726610;83;20526;-78
2021/04/18 11:33:54;;;;;;;;;;;;;;;13.17;49.17;101437.80;1726785;83;20163;-76
2021/04/18 11:36:22;;;;;;;;;;;;;;;13.14;48.13;101432.78;1726569;83;20139;-75
2021/04/18 11:38:50;;;;;;;;;;;;;;;13.13;48.41;101432.88;1726703;83;22195;-76
2021/04/18 11:41:20;;;;;;;;;;;;;;;13.18;48.49;101434.70;1726893;83;20139;-79
2021/04/18 11:43:49;;;;;;;;;;;;;;;13.15;48.18;101427.08;1726659;83;20245;-77
2021/04/18 11:46:16;;;;;;;;;;;;;;;13.11;48.63;101429.53;1726802;83;20582;-78
2021/04/18 11:48:46;;;;;;;;;;;;;;;13.10;48.19;101436.98;1726807;82;20255;-77
2021/04/18 11:51:15;;;;;;;;;;;;;;;13.02;47.68;101436.12;1726796;83;22036;-76
2021/04/18 11:53:43;;;;;;;;;;;;;;;12.96;47.39;101427.86;1726948;83;20207;-76
2021/04/18 11:56:12;;;;;;;;;;;;;;;12.83;46.46;101430.41;1727409;83;20501;-78
2021/04/18 11:58:39;;;;;;;;;;;;;;;12.67;46.43;101437.50;1726901;83;20156;-78
2021/04/18 12:01:09;;;;;;;;;;;;;;;12.57;46.75;101435.94;1726720;83;20294;-78
2021/04/18 12:03:37;;;;;;;;;;;;;;;12.54;47.09;101436.13;1726885;83;21200;-77
2021/04/18 12:06:06;;;;;;;;;;;;;;;12.50;46.35;101432.52;1726677;83;20132;-78
2021/04/18 12:08:35;;;;;;;;;;;;;;;12.43;46.70;101430.77;1726687;83;20147;-78
2021/04/18 12:11:04;;;;;;;;;;;;;;;12.45;46.26;101425.45;1726738;83;20615;-78
2021/04/18 12:13:32;;;;;;;;;;;;;;;12.45;46.58;101418.48;1726770;83;20247;-75
2021/04/18 12:16:00;;;;;;;;;;;;;;;12.45;46.56;101417.17;1726703;83;21206;-75
2021/04/18 12:18:29;;;;;;;;;;;;;;;12.44;45.97;101416.83;1726544;83;20179;-75
2021/04/18 12:20:58;;;;;;;;;;;;;;;12.41;46.15;101420.89;1726601;83;20132;-75
2021/04/18 12:23:25;;;;;;;;;;;;;;;12.42;46.19;101419.97;1726753;83;20955;-76
2021/04/18 12:25:53;;;;;;;;;;;;;;;12.46;46.60;101421.46;1726755;83;20267;-76
2021/04/18 12:28:21;;;;;;;;;;;;;;;12.45;46.90;101424.14;1726699;83;21313;-76
2021/04/18 12:30:49;;;;;;;;;;;;;;;12.46;47.21;101425.83;1726753;83;20140;-76
2021/04/18 12:33:17;;;;;;;;;;;;;;;12.46;47.35;101429.27;1726848;83;20685;-76
2021/04/18 12:35:44;;;;;;;;;;;;;;;12.50;47.11;101421.65;1727365;83;20119;-76
2021/04/18 12:38:12;;;;;;;;;;;;;;;12.54;46.60;101414.00;1727937;83;20259;-76
2021/04/18 12:40:39;;;;;;;;;;;;;;;12.58;46.38;101413.34;1726810;83;21138;-75
2021/04/18 12:43:07;;;;;;;;;;;;;;;12.63;45.86;101410.01;1726646;83;20136;-76
2021/04/18 12:45:36;;;;;;;;;;;;;;;12.68;46.47;101402.73;1726657;83;20177;-77
2021/04/18 12:48:05;;;;;;;;;;;;;;;12.71;46.42;101403.84;1726765;83;20262;-76
2021/04/18 12:50:33;;;;;;;;;;;;;;;12.73;45.83;101394.98;1726793;83;20195;-76
2021/04/18 12:53:01;;;;;;;;;;;;;;;12.75;45.66;101391.00;1726882;83;21650;-77
2021/04/18 12:55:29;;;;;;;;;;;;;;;12.72;44.83;101391.20;1726636;83;20221;-77